CG Abbie Burgess — NVAF — position and weather

sailwx.info

Track history (hours):
 
Tides and Currents Weather Stations Pressure Air Temp Water Temp Dewpoint Dewpoint Depression Visibility Wind Speed Wind Dir Waves Ship Positions

CG Abbie Burgess

Last reported at 2017-Oct-17 10:21 UTC. Time now 2017-Oct-17 16:57 UTC.
Position N 44°06' W 069°06'.

Length 53 m; draft 2.7 m.

Type: Military. MMSI: 368941000.

Date/timePositionNaut miles runAvg speedWind from/ knotsBaromVisibWave heightAir tempDewpointWater temp
2017-Oct-17 10:21N 44°06' W 069°06'0 0.0
2017-Oct-17 09:51N 44°06' W 069°06'0 0.0
2017-Oct-17 08:06N 44°06' W 069°06'0 0.0
2017-Oct-17 06:16N 44°06' W 069°06'0 0.0
2017-Oct-17 05:43N 44°06' W 069°06'0 0.0
2017-Oct-17 05:28N 44°06' W 069°06'0 0.0
2017-Oct-17 04:58N 44°06' W 069°06'0 0.0
2017-Oct-17 04:21N 44°06' W 069°06'0 0.0
2017-Oct-17 02:51N 44°06' W 069°06'0 0.0
2017-Oct-17 02:27N 44°06' W 069°06'0 0.0
2017-Oct-17 02:00N 44°06' W 069°06'0 0.0
2017-Oct-16 23:58N 44°06' W 069°06'0 0.0
2017-Oct-16 22:49N 44°06' W 069°06'0 0.0
2017-Oct-16 20:40N 44°06' W 069°06'0 0.0
2017-Oct-16 19:03N 44°06' W 069°06'0 0.0
2017-Oct-16 18:55N 44°06' W 069°06'2 3.5
2017-Oct-16 18:24N 44°06' W 069°04'3 4.4
2017-Oct-16 17:50N 44°05' W 069°01'4 6.9
2017-Oct-16 17:18N 44°08' W 068°58'3 7.9
2017-Oct-16 16:52N 44°11' W 068°56'0 0.0
2017-Oct-16 16:29N 44°11' W 068°56'0 0.3
2017-Oct-16 16:00N 44°11' W 068°57'4 8.2
2017-Oct-16 15:30N 44°10' W 069°02'610.2
2017-Oct-16 14:56N 44°15' W 068°59'2 1.2
2017-Oct-16 13:04N 44°17' W 068°57'0 0.0
2017-Oct-16 12:46N 44°17' W 068°57'1 2.6
2017-Oct-16 12:19N 44°16' W 068°58'412.1
2017-Oct-16 12:01N 44°13' W 069°00'711.9
2017-Oct-16 11:27N 44°06' W 069°04'1 2.4
2017-Oct-16 10:52N 44°06' W 069°06'0 0.0
2017-Oct-16 10:21N 44°06' W 069°06'0 0.0
2017-Oct-16 09:51N 44°06' W 069°06'0 0.0
2017-Oct-16 09:25N 44°06' W 069°06'0 0.0
2017-Oct-16 08:55N 44°06' W 069°06'0 0.0
2017-Oct-16 08:28N 44°06' W 069°06'0 0.0
2017-Oct-16 08:00N 44°06' W 069°06'0 0.0
2017-Oct-16 07:30N 44°06' W 069°06'0 0.0
2017-Oct-16 06:54N 44°06' W 069°06'0 0.0
2017-Oct-16 06:30N 44°06' W 069°06'0 0.0
2017-Oct-16 06:00N 44°06' W 069°06'0 0.0
2017-Oct-16 05:28N 44°06' W 069°06'0 0.0
2017-Oct-16 04:58N 44°06' W 069°06'0 0.0
2017-Oct-16 03:55N 44°06' W 069°06'0 0.0
2017-Oct-16 02:42N 44°06' W 069°06'0 0.0
2017-Oct-16 02:24N 44°06' W 069°06'0 0.0
2017-Oct-16 01:51N 44°06' W 069°06'0 0.0
2017-Oct-16 01:21N 44°06' W 069°06'0 0.0
2017-Oct-16 01:00N 44°06' W 069°06'0 0.0
2017-Oct-16 00:21N 44°06' W 069°06'0 0.0
2017-Oct-15 23:57N 44°06' W 069°06'0 0.0
2017-Oct-15 23:22N 44°06' W 069°06'0 0.0
2017-Oct-15 22:58N 44°06' W 069°06'0 0.0
2017-Oct-15 18:22N 44°06' W 069°06'0 0.0
2017-Oct-15 17:52N 44°06' W 069°06'0 0.0
2017-Oct-15 16:51N 44°06' W 069°06'0 0.0
2017-Oct-15 16:21N 44°06' W 069°06'0 0.0
2017-Oct-15 15:51N 44°06' W 069°06'0 0.0
2017-Oct-15 15:21N 44°06' W 069°06'0 0.0
2017-Oct-15 14:52N 44°06' W 069°06'0 0.0
2017-Oct-15 12:13N 44°06' W 069°06'0 0.0
2017-Oct-15 08:42N 44°06' W 069°06'0 0.0
2017-Oct-15 08:21N 44°06' W 069°06'0 0.0
2017-Oct-15 07:51N 44°06' W 069°06'0 0.0
2017-Oct-15 07:21N 44°06' W 069°06'0 0.0
2017-Oct-15 06:21N 44°06' W 069°06'0 0.0
2017-Oct-15 05:55N 44°06' W 069°06'0 0.0
2017-Oct-15 05:21N 44°06' W 069°06'0 0.0
2017-Oct-15 04:51N 44°06' W 069°06'0 0.0
2017-Oct-15 04:21N 44°06' W 069°06'0 0.0
2017-Oct-15 01:52N 44°06' W 069°06'0 0.0
2017-Oct-15 00:40N 44°06' W 069°06'0 0.0
2017-Oct-14 23:19N 44°06' W 069°06'0 0.0
2017-Oct-14 22:52N 44°06' W 069°06'0 0.0
2017-Oct-14 22:21N 44°06' W 069°06'0 0.0
2017-Oct-14 21:51N 44°06' W 069°06'0 0.0
2017-Oct-14 21:21N 44°06' W 069°06'0 0.0
2017-Oct-14 20:51N 44°06' W 069°06'0 0.0
2017-Oct-14 20:21N 44°06' W 069°06'0 0.0
2017-Oct-14 19:54N 44°06' W 069°06'0 0.0
2017-Oct-14 17:37N 44°06' W 069°06'0 0.0
2017-Oct-14 15:00N 44°06' W 069°06'0 0.0
2017-Oct-14 14:22N 44°06' W 069°06'0 0.0
2017-Oct-14 13:52N 44°06' W 069°06'0 0.0
2017-Oct-14 13:21N 44°06' W 069°06'0 0.0
2017-Oct-14 12:51N 44°06' W 069°06'0 0.0
2017-Oct-14 12:27N 44°06' W 069°06'0 0.0
2017-Oct-14 11:22N 44°06' W 069°06'0 0.0
2017-Oct-14 07:16N 44°06' W 069°06'0 0.0
2017-Oct-14 06:51N 44°06' W 069°06'0 0.0
2017-Oct-14 06:21N 44°06' W 069°06'0 0.0
2017-Oct-14 05:51N 44°06' W 069°06'0 0.0
2017-Oct-14 03:58N 44°06' W 069°06'0 0.0
2017-Oct-14 02:52N 44°06' W 069°06'0 0.0
2017-Oct-14 02:27N 44°06' W 069°06'0 0.0
2017-Oct-14 01:19N 44°06' W 069°06'0 0.0
2017-Oct-14 00:58N 44°06' W 069°06'0 0.0
2017-Oct-14 00:30N 44°06' W 069°06'0 0.0
2017-Oct-13 23:51N 44°06' W 069°06'0 0.0
2017-Oct-13 23:21N 44°06' W 069°06'0 0.0
2017-Oct-13 22:51N 44°06' W 069°06'0 0.0
2017-Oct-13 22:21N 44°06' W 069°06'0 0.0
2017-Oct-13 21:55N 44°06' W 069°06'0 0.0
2017-Oct-13 21:21N 44°06' W 069°06'0 0.0
2017-Oct-13 20:45N 44°06' W 069°06'0 0.0
2017-Oct-13 20:01N 44°06' W 069°06'0 0.0
2017-Oct-13 19:46N 44°06' W 069°06'0 0.0
2017-Oct-13 19:22N 44°06' W 069°06'0 0.0
2017-Oct-13 18:43N 44°06' W 069°06'0 0.0
2017-Oct-13 18:19N 44°06' W 069°06'0 0.0
2017-Oct-13 17:52N 44°06' W 069°06'0 0.0
2017-Oct-13 17:22N 44°06' W 069°06'0 0.0
2017-Oct-13 16:58N 44°06' W 069°06'0 0.0
2017-Oct-13 16:29N 44°06' W 069°06'0 0.0
2017-Oct-13 13:52N 44°06' W 069°06'0 0.0
2017-Oct-13 13:21N 44°06' W 069°06'0 0.0
2017-Oct-13 12:52N 44°06' W 069°06'0 0.0
2017-Oct-13 11:25N 44°06' W 069°06'0 0.0
2017-Oct-13 10:52N 44°06' W 069°06'0 0.0
2017-Oct-13 10:25N 44°06' W 069°06'0 0.0
2017-Oct-13 09:55N 44°06' W 069°06'0 0.0
2017-Oct-13 08:22N 44°06' W 069°06'0 0.0
2017-Oct-13 07:55N 44°06' W 069°06'0 0.0
2017-Oct-13 07:25N 44°06' W 069°06'0 0.0
2017-Oct-13 06:55N 44°06' W 069°06'0 0.0
2017-Oct-13 06:28N 44°06' W 069°06'0 0.0
2017-Oct-13 04:54N 44°06' W 069°06'0 0.0
2017-Oct-12 21:48N 44°06' W 069°06'0 0.0
2017-Oct-12 21:22N 44°06' W 069°06'0 0.0
2017-Oct-12 20:52N 44°06' W 069°06'0 0.0
2017-Oct-12 20:27N 44°06' W 069°06'0 0.0
2017-Oct-12 17:33N 44°06' W 069°06'0 0.1
2017-Oct-12 17:28N 44°06' W 069°06'0 0.0
2017-Oct-12 16:54N 44°06' W 069°06'2 3.5
2017-Oct-12 16:27N 44°06' W 069°04'2 4.1
2017-Oct-12 15:55N 44°08' W 069°02'4 7.1
2017-Oct-12 15:25N 44°11' W 069°01'6 0.2
2017-Oct-10 23:21N 44°06' W 069°06'0 0.0
2017-Oct-10 19:51N 44°06' W 069°06'0 0.0
2017-Oct-10 19:22N 44°06' W 069°06'0 0.0
2017-Oct-10 13:56N 44°06' W 069°06'0 0.0
2017-Oct-10 12:21N 44°06' W 069°06'0 0.0
2017-Oct-10 11:51N 44°06' W 069°06'0 0.0
2017-Oct-10 11:22N 44°06' W 069°06'0 0.0
2017-Oct-10 04:42N 44°06' W 069°06'0 0.0
2017-Oct-10 02:21N 44°06' W 069°06'0 0.0
2017-Oct-10 01:51N 44°06' W 069°06'0 0.0
2017-Oct-10 01:25N 44°06' W 069°06'0 0.0
2017-Oct-10 00:51N 44°06' W 069°06'0 0.0
2017-Oct-09 19:12N 44°06' W 069°06'0 0.0
2017-Oct-09 18:51N 44°06' W 069°06'0 0.0
2017-Oct-09 18:21N 44°06' W 069°06'0 0.0
2017-Oct-09 17:51N 44°06' W 069°06'0 0.0
2017-Oct-09 17:21N 44°06' W 069°06'0 0.0
2017-Oct-09 16:34N 44°06' W 069°06'0 0.0
2017-Oct-09 16:16N 44°06' W 069°06'0 0.0
2017-Oct-09 14:55N 44°06' W 069°06'0 0.0
2017-Oct-09 12:10N 44°06' W 069°06'0 0.0
2017-Oct-09 10:57N 44°06' W 069°06'0 0.0
2017-Oct-09 10:21N 44°06' W 069°06'0 0.0
2017-Oct-09 09:57N 44°06' W 069°06'0 0.0
2017-Oct-09 09:21N 44°06' W 069°06'0 0.0
2017-Oct-09 08:52N 44°06' W 069°06'0 0.0
2017-Oct-09 08:25N 44°06' W 069°06'0 0.0
2017-Oct-09 07:51N 44°06' W 069°06'0 0.0
2017-Oct-09 06:36N 44°06' W 069°06'0 0.0
2017-Oct-09 06:06N 44°06' W 069°06'0 0.0
2017-Oct-09 05:36N 44°06' W 069°06'0 0.0
2017-Oct-09 05:10N 44°06' W 069°06'0 0.0
2017-Oct-09 04:40N 44°06' W 069°06'0 0.0
2017-Oct-09 04:30N 44°06' W 069°06'0 0.0
2017-Oct-09 03:36N 44°06' W 069°06'0 0.0
2017-Oct-08 22:37N 44°06' W 069°06'0 0.0
2017-Oct-08 22:06N 44°06' W 069°06'0 0.0
2017-Oct-08 21:40N 44°06' W 069°06'0 0.0
2017-Oct-08 21:30N 44°06' W 069°06'0 0.0
2017-Oct-08 20:01N 44°06' W 069°06'0 0.0
2017-Oct-08 17:03N 44°06' W 069°06'0 0.0
2017-Oct-08 16:59N 44°06' W 069°06'0 0.0
2017-Oct-08 16:25N 44°06' W 069°06'0 0.0
2017-Oct-08 15:19N 44°06' W 069°06'0 0.0
2017-Oct-08 14:55N 44°06' W 069°06'0 0.0
2017-Oct-08 14:19N 44°06' W 069°06'0 0.0
2017-Oct-08 12:36N 44°06' W 069°06'0 0.0
2017-Oct-08 12:30N 44°06' W 069°06'0 0.0
2017-Oct-08 11:36N 44°06' W 069°06'0 0.0
2017-Oct-08 11:30N 44°06' W 069°06'0 0.0
2017-Oct-08 10:48N 44°06' W 069°06'0 0.0
2017-Oct-08 05:06N 44°06' W 069°06'0 0.0
2017-Oct-08 04:54N 44°06' W 069°06'0 0.0
2017-Oct-08 03:06N 44°06' W 069°06'0 0.0
2017-Oct-08 01:36N 44°06' W 069°06'0 0.0
2017-Oct-08 00:10N 44°06' W 069°06'0 0.0
2017-Oct-07 11:37N 44°06' W 069°06'0 0.0
2017-Oct-07 11:10N 44°06' W 069°06'0 0.0
2017-Oct-07 10:36N 44°06' W 069°06'0 0.0
2017-Oct-07 10:24N 44°06' W 069°06'  
Track history (hours):
 
Tides and Currents Weather Stations Pressure Air Temp Water Temp Dewpoint Dewpoint Depression Visibility Wind Speed Wind Dir Waves Ship Positions

CG Abbie Burgess

Last reported at 2017-Oct-17 10:21 UTC. Time now 2017-Oct-17 16:57 UTC.
Position N 44°06' W 069°06'.

Length 53 m; draft 2.7 m.

Type: Military. MMSI: 368941000.

Date/timePositionNaut miles runAvg speedWind from/ knotsBaromVisibWave heightAir tempDewpointWater temp
2017-Oct-17 10:21N 44°06' W 069°06'0 0.0
2017-Oct-17 09:51N 44°06' W 069°06'0 0.0
2017-Oct-17 08:06N 44°06' W 069°06'0 0.0
2017-Oct-17 06:16N 44°06' W 069°06'0 0.0
2017-Oct-17 05:43N 44°06' W 069°06'0 0.0
2017-Oct-17 05:28N 44°06' W 069°06'0 0.0
2017-Oct-17 04:58N 44°06' W 069°06'0 0.0
2017-Oct-17 04:21N 44°06' W 069°06'0 0.0
2017-Oct-17 02:51N 44°06' W 069°06'0 0.0
2017-Oct-17 02:27N 44°06' W 069°06'0 0.0
2017-Oct-17 02:00N 44°06' W 069°06'0 0.0
2017-Oct-16 23:58N 44°06' W 069°06'0 0.0
2017-Oct-16 22:49N 44°06' W 069°06'0 0.0
2017-Oct-16 20:40N 44°06' W 069°06'0 0.0
2017-Oct-16 19:03N 44°06' W 069°06'0 0.0
2017-Oct-16 18:55N 44°06' W 069°06'2 3.5
2017-Oct-16 18:24N 44°06' W 069°04'3 4.4
2017-Oct-16 17:50N 44°05' W 069°01'4 6.9
2017-Oct-16 17:18N 44°08' W 068°58'3 7.9
2017-Oct-16 16:52N 44°11' W 068°56'0 0.0
2017-Oct-16 16:29N 44°11' W 068°56'0 0.3
2017-Oct-16 16:00N 44°11' W 068°57'4 8.2
2017-Oct-16 15:30N 44°10' W 069°02'610.2
2017-Oct-16 14:56N 44°15' W 068°59'2 1.2
2017-Oct-16 13:04N 44°17' W 068°57'0 0.0
2017-Oct-16 12:46N 44°17' W 068°57'1 2.6
2017-Oct-16 12:19N 44°16' W 068°58'412.1
2017-Oct-16 12:01N 44°13' W 069°00'711.9
2017-Oct-16 11:27N 44°06' W 069°04'1 2.4
2017-Oct-16 10:52N 44°06' W 069°06'0 0.0
2017-Oct-16 10:21N 44°06' W 069°06'0 0.0
2017-Oct-16 09:51N 44°06' W 069°06'0 0.0
2017-Oct-16 09:25N 44°06' W 069°06'0 0.0
2017-Oct-16 08:55N 44°06' W 069°06'0 0.0
2017-Oct-16 08:28N 44°06' W 069°06'0 0.0
2017-Oct-16 08:00N 44°06' W 069°06'0 0.0
2017-Oct-16 07:30N 44°06' W 069°06'0 0.0
2017-Oct-16 06:54N 44°06' W 069°06'0 0.0
2017-Oct-16 06:30N 44°06' W 069°06'0 0.0
2017-Oct-16 06:00N 44°06' W 069°06'0 0.0
2017-Oct-16 05:28N 44°06' W 069°06'0 0.0
2017-Oct-16 04:58N 44°06' W 069°06'0 0.0
2017-Oct-16 03:55N 44°06' W 069°06'0 0.0
2017-Oct-16 02:42N 44°06' W 069°06'0 0.0
2017-Oct-16 02:24N 44°06' W 069°06'0 0.0
2017-Oct-16 01:51N 44°06' W 069°06'0 0.0
2017-Oct-16 01:21N 44°06' W 069°06'0 0.0
2017-Oct-16 01:00N 44°06' W 069°06'0 0.0
2017-Oct-16 00:21N 44°06' W 069°06'0 0.0
2017-Oct-15 23:57N 44°06' W 069°06'0 0.0
2017-Oct-15 23:22N 44°06' W 069°06'0 0.0
2017-Oct-15 22:58N 44°06' W 069°06'0 0.0
2017-Oct-15 18:22N 44°06' W 069°06'0 0.0
2017-Oct-15 17:52N 44°06' W 069°06'0 0.0
2017-Oct-15 16:51N 44°06' W 069°06'0 0.0
2017-Oct-15 16:21N 44°06' W 069°06'0 0.0
2017-Oct-15 15:51N 44°06' W 069°06'0 0.0
2017-Oct-15 15:21N 44°06' W 069°06'0 0.0
2017-Oct-15 14:52N 44°06' W 069°06'0 0.0
2017-Oct-15 12:13N 44°06' W 069°06'0 0.0
2017-Oct-15 08:42N 44°06' W 069°06'0 0.0
2017-Oct-15 08:21N 44°06' W 069°06'0 0.0
2017-Oct-15 07:51N 44°06' W 069°06'0 0.0
2017-Oct-15 07:21N 44°06' W 069°06'0 0.0
2017-Oct-15 06:21N 44°06' W 069°06'0 0.0
2017-Oct-15 05:55N 44°06' W 069°06'0 0.0
2017-Oct-15 05:21N 44°06' W 069°06'0 0.0
2017-Oct-15 04:51N 44°06' W 069°06'0 0.0
2017-Oct-15 04:21N 44°06' W 069°06'0 0.0
2017-Oct-15 01:52N 44°06' W 069°06'0 0.0
2017-Oct-15 00:40N 44°06' W 069°06'0 0.0
2017-Oct-14 23:19N 44°06' W 069°06'0 0.0
2017-Oct-14 22:52N 44°06' W 069°06'0 0.0
2017-Oct-14 22:21N 44°06' W 069°06'0 0.0
2017-Oct-14 21:51N 44°06' W 069°06'0 0.0
2017-Oct-14 21:21N 44°06' W 069°06'0 0.0
2017-Oct-14 20:51N 44°06' W 069°06'0 0.0
2017-Oct-14 20:21N 44°06' W 069°06'0 0.0
2017-Oct-14 19:54N 44°06' W 069°06'0 0.0
2017-Oct-14 17:37N 44°06' W 069°06'0 0.0
2017-Oct-14 15:00N 44°06' W 069°06'0 0.0
2017-Oct-14 14:22N 44°06' W 069°06'0 0.0
2017-Oct-14 13:52N 44°06' W 069°06'0 0.0
2017-Oct-14 13:21N 44°06' W 069°06'0 0.0
2017-Oct-14 12:51N 44°06' W 069°06'0 0.0
2017-Oct-14 12:27N 44°06' W 069°06'0 0.0
2017-Oct-14 11:22N 44°06' W 069°06'0 0.0
2017-Oct-14 07:16N 44°06' W 069°06'0 0.0
2017-Oct-14 06:51N 44°06' W 069°06'0 0.0
2017-Oct-14 06:21N 44°06' W 069°06'0 0.0
2017-Oct-14 05:51N 44°06' W 069°06'0 0.0
2017-Oct-14 03:58N 44°06' W 069°06'0 0.0
2017-Oct-14 02:52N 44°06' W 069°06'0 0.0
2017-Oct-14 02:27N 44°06' W 069°06'0 0.0
2017-Oct-14 01:19N 44°06' W 069°06'0 0.0
2017-Oct-14 00:58N 44°06' W 069°06'0 0.0
2017-Oct-14 00:30N 44°06' W 069°06'0 0.0
2017-Oct-13 23:51N 44°06' W 069°06'0 0.0
2017-Oct-13 23:21N 44°06' W 069°06'0 0.0
2017-Oct-13 22:51N 44°06' W 069°06'0 0.0
2017-Oct-13 22:21N 44°06' W 069°06'0 0.0
2017-Oct-13 21:55N 44°06' W 069°06'0 0.0
2017-Oct-13 21:21N 44°06' W 069°06'0 0.0
2017-Oct-13 20:45N 44°06' W 069°06'0 0.0
2017-Oct-13 20:01N 44°06' W 069°06'0 0.0
2017-Oct-13 19:46N 44°06' W 069°06'0 0.0
2017-Oct-13 19:22N 44°06' W 069°06'0 0.0
2017-Oct-13 18:43N 44°06' W 069°06'0 0.0
2017-Oct-13 18:19N 44°06' W 069°06'0 0.0
2017-Oct-13 17:52N 44°06' W 069°06'0 0.0
2017-Oct-13 17:22N 44°06' W 069°06'0 0.0
2017-Oct-13 16:58N 44°06' W 069°06'0 0.0
2017-Oct-13 16:29N 44°06' W 069°06'0 0.0
2017-Oct-13 13:52N 44°06' W 069°06'0 0.0
2017-Oct-13 13:21N 44°06' W 069°06'0 0.0
2017-Oct-13 12:52N 44°06' W 069°06'0 0.0
2017-Oct-13 11:25N 44°06' W 069°06'0 0.0
2017-Oct-13 10:52N 44°06' W 069°06'0 0.0
2017-Oct-13 10:25N 44°06' W 069°06'0 0.0
2017-Oct-13 09:55N 44°06' W 069°06'0 0.0
2017-Oct-13 08:22N 44°06' W 069°06'0 0.0
2017-Oct-13 07:55N 44°06' W 069°06'0 0.0
2017-Oct-13 07:25N 44°06' W 069°06'0 0.0
2017-Oct-13 06:55N 44°06' W 069°06'0 0.0
2017-Oct-13 06:28N 44°06' W 069°06'0 0.0
2017-Oct-13 04:54N 44°06' W 069°06'0 0.0
2017-Oct-12 21:48N 44°06' W 069°06'0 0.0
2017-Oct-12 21:22N 44°06' W 069°06'0 0.0
2017-Oct-12 20:52N 44°06' W 069°06'0 0.0
2017-Oct-12 20:27N 44°06' W 069°06'0 0.0
2017-Oct-12 17:33N 44°06' W 069°06'0 0.1
2017-Oct-12 17:28N 44°06' W 069°06'0 0.0
2017-Oct-12 16:54N 44°06' W 069°06'2 3.5
2017-Oct-12 16:27N 44°06' W 069°04'2 4.1
2017-Oct-12 15:55N 44°08' W 069°02'4 7.1
2017-Oct-12 15:25N 44°11' W 069°01'6 0.2
2017-Oct-10 23:21N 44°06' W 069°06'0 0.0
2017-Oct-10 19:51N 44°06' W 069°06'0 0.0
2017-Oct-10 19:22N 44°06' W 069°06'0 0.0
2017-Oct-10 13:56N 44°06' W 069°06'0 0.0
2017-Oct-10 12:21N 44°06' W 069°06'0 0.0
2017-Oct-10 11:51N 44°06' W 069°06'0 0.0
2017-Oct-10 11:22N 44°06' W 069°06'0 0.0
2017-Oct-10 04:42N 44°06' W 069°06'0 0.0
2017-Oct-10 02:21N 44°06' W 069°06'0 0.0
2017-Oct-10 01:51N 44°06' W 069°06'0 0.0
2017-Oct-10 01:25N 44°06' W 069°06'0 0.0
2017-Oct-10 00:51N 44°06' W 069°06'0 0.0
2017-Oct-09 19:12N 44°06' W 069°06'0 0.0
2017-Oct-09 18:51N 44°06' W 069°06'0 0.0
2017-Oct-09 18:21N 44°06' W 069°06'0 0.0
2017-Oct-09 17:51N 44°06' W 069°06'0 0.0
2017-Oct-09 17:21N 44°06' W 069°06'0 0.0
2017-Oct-09 16:34N 44°06' W 069°06'0 0.0
2017-Oct-09 16:16N 44°06' W 069°06'0 0.0
2017-Oct-09 14:55N 44°06' W 069°06'0 0.0
2017-Oct-09 12:10N 44°06' W 069°06'0 0.0
2017-Oct-09 10:57N 44°06' W 069°06'0 0.0
2017-Oct-09 10:21N 44°06' W 069°06'0 0.0
2017-Oct-09 09:57N 44°06' W 069°06'0 0.0
2017-Oct-09 09:21N 44°06' W 069°06'0 0.0
2017-Oct-09 08:52N 44°06' W 069°06'0 0.0
2017-Oct-09 08:25N 44°06' W 069°06'0 0.0
2017-Oct-09 07:51N 44°06' W 069°06'0 0.0
2017-Oct-09 06:36N 44°06' W 069°06'0 0.0
2017-Oct-09 06:06N 44°06' W 069°06'0 0.0
2017-Oct-09 05:36N 44°06' W 069°06'0 0.0
2017-Oct-09 05:10N 44°06' W 069°06'0 0.0
2017-Oct-09 04:40N 44°06' W 069°06'0 0.0
2017-Oct-09 04:30N 44°06' W 069°06'0 0.0
2017-Oct-09 03:36N 44°06' W 069°06'0 0.0
2017-Oct-08 22:37N 44°06' W 069°06'0 0.0
2017-Oct-08 22:06N 44°06' W 069°06'0 0.0
2017-Oct-08 21:40N 44°06' W 069°06'0 0.0
2017-Oct-08 21:30N 44°06' W 069°06'0 0.0
2017-Oct-08 20:01N 44°06' W 069°06'0 0.0
2017-Oct-08 17:03N 44°06' W 069°06'0 0.0
2017-Oct-08 16:59N 44°06' W 069°06'0 0.0
2017-Oct-08 16:25N 44°06' W 069°06'0 0.0
2017-Oct-08 15:19N 44°06' W 069°06'0 0.0
2017-Oct-08 14:55N 44°06' W 069°06'0 0.0
2017-Oct-08 14:19N 44°06' W 069°06'0 0.0
2017-Oct-08 12:36N 44°06' W 069°06'0 0.0
2017-Oct-08 12:30N 44°06' W 069°06'0 0.0
2017-Oct-08 11:36N 44°06' W 069°06'0 0.0
2017-Oct-08 11:30N 44°06' W 069°06'0 0.0
2017-Oct-08 10:48N 44°06' W 069°06'0 0.0
2017-Oct-08 05:06N 44°06' W 069°06'0 0.0
2017-Oct-08 04:54N 44°06' W 069°06'0 0.0
2017-Oct-08 03:06N 44°06' W 069°06'0 0.0
2017-Oct-08 01:36N 44°06' W 069°06'0 0.0
2017-Oct-08 00:10N 44°06' W 069°06'0 0.0
2017-Oct-07 11:37N 44°06' W 069°06'0 0.0
2017-Oct-07 11:10N 44°06' W 069°06'0 0.0
2017-Oct-07 10:36N 44°06' W 069°06'0 0.0
2017-Oct-07 10:24N 44°06' W 069°06'  

Dump ship's entire track history